createdAt,value
2023-11-30T00:00:17.325Z,-1.91
2023-11-30T00:02:44.028Z,-1.90
2023-11-30T00:05:10.862Z,-1.92
2023-11-30T00:07:37.594Z,-1.94
2023-11-30T00:10:04.867Z,-1.95
2023-11-30T00:12:31.994Z,-1.97
2023-11-30T00:14:58.858Z,-2.00
2023-11-30T00:17:25.754Z,-2.01
2023-11-30T00:19:52.451Z,-2.01
2023-11-30T00:22:19.716Z,-2.03
2023-11-30T00:24:46.402Z,-2.03
2023-11-30T00:27:13.091Z,-2.03
2023-11-30T00:29:39.804Z,-2.08
2023-11-30T00:32:06.834Z,-2.08
2023-11-30T00:34:33.588Z,-2.08
2023-11-30T00:37:00.255Z,-2.09
2023-11-30T00:39:26.922Z,-2.10
2023-11-30T00:41:53.805Z,-2.11
2023-11-30T00:44:22.443Z,-2.11
2023-11-30T00:46:49.385Z,-2.05
2023-11-30T00:49:16.143Z,-2.01
2023-11-30T00:51:42.868Z,-1.99
2023-11-30T00:54:09.558Z,-1.95
2023-11-30T00:56:36.339Z,-1.89
2023-11-30T00:59:03.007Z,-1.90
2023-11-30T01:01:29.808Z,-1.87
2023-11-30T01:03:56.517Z,-1.85
2023-11-30T01:06:23.302Z,-1.83
2023-11-30T01:08:50.051Z,-1.78
2023-11-30T01:11:16.757Z,-1.75
2023-11-30T01:13:45.355Z,-1.76
2023-11-30T01:16:12.110Z,-1.80
2023-11-30T01:18:38.856Z,-1.80
2023-11-30T01:21:06.043Z,-1.79
2023-11-30T01:23:32.689Z,-1.78
2023-11-30T01:25:59.367Z,-1.74
2023-11-30T01:28:26.055Z,-1.73
2023-11-30T01:30:52.827Z,-1.75
2023-11-30T01:33:19.593Z,-1.76
2023-11-30T01:35:46.438Z,-1.75
2023-11-30T01:38:13.109Z,-1.75
2023-11-30T01:40:39.942Z,-1.74
2023-11-30T01:43:07.684Z,-1.74
2023-11-30T01:45:34.651Z,-1.77
2023-11-30T01:48:02.230Z,-1.77
2023-11-30T01:50:28.980Z,-1.78
2023-11-30T01:52:56.215Z,-1.77
2023-11-30T01:55:23.017Z,-1.78
2023-11-30T01:57:49.800Z,-1.78
2023-11-30T02:00:17.488Z,-1.79
2023-11-30T02:02:44.731Z,-1.81
2023-11-30T02:05:11.639Z,-1.80
2023-11-30T02:07:38.449Z,-1.78
2023-11-30T02:10:05.394Z,-1.74
2023-11-30T02:12:32.106Z,-1.71
2023-11-30T02:15:00.452Z,-1.65
2023-11-30T02:17:27.244Z,-1.56
2023-11-30T02:19:53.912Z,-1.46
2023-11-30T02:22:20.587Z,-1.38
2023-11-30T02:24:47.340Z,-1.32
2023-11-30T02:27:14.233Z,-1.27
2023-11-30T02:29:40.924Z,-1.23
2023-11-30T02:32:07.849Z,-1.20
2023-11-30T02:34:34.552Z,-1.17
2023-11-30T02:37:01.319Z,-1.15
2023-11-30T02:39:28.109Z,-1.13
2023-11-30T02:41:54.888Z,-1.10
2023-11-30T02:44:22.355Z,-1.09
2023-11-30T02:46:49.236Z,-1.09
2023-11-30T02:49:15.993Z,-1.06
2023-11-30T02:51:42.697Z,-1.04
2023-11-30T02:54:09.383Z,-1.03
2023-11-30T02:56:42.369Z,-1.02
2023-11-30T02:59:09.109Z,-1.00
2023-11-30T03:01:43.347Z,-0.99
2023-11-30T03:04:10.129Z,-0.97
2023-11-30T03:06:36.818Z,-0.94
2023-11-30T03:09:03.750Z,-0.91
2023-11-30T03:11:30.428Z,-0.89
2023-11-30T03:13:57.151Z,-0.84
2023-11-30T03:16:25.589Z,-0.80
2023-11-30T03:19:05.810Z,-0.76
2023-11-30T03:21:39.218Z,-0.69
2023-11-30T03:24:08.929Z,-0.67
2023-11-30T03:26:35.736Z,-0.64
2023-11-30T03:29:02.404Z,-0.60
2023-11-30T03:31:29.137Z,-0.59
2023-11-30T03:33:55.796Z,-0.55
2023-11-30T03:36:22.616Z,-0.53
2023-11-30T03:38:54.843Z,-0.49
2023-11-30T03:41:22.257Z,-0.46
2023-11-30T03:43:49.416Z,-0.43
2023-11-30T03:46:17.053Z,-0.38
2023-11-30T03:48:44.057Z,-0.36
2023-11-30T03:51:11.952Z,-0.33
2023-11-30T03:53:38.727Z,-0.28
2023-11-30T03:56:05.943Z,-0.25
2023-11-30T03:58:32.752Z,-0.21
2023-11-30T04:00:59.434Z,-0.18
2023-11-30T04:03:26.122Z,-0.18
2023-11-30T04:05:53.124Z,-0.16
2023-11-30T04:08:19.880Z,-0.14
2023-11-30T04:10:46.625Z,-0.14
2023-11-30T04:13:13.339Z,-0.11
2023-11-30T04:15:40.814Z,-0.09
2023-11-30T04:18:07.737Z,-0.05
2023-11-30T04:20:34.584Z,-0.02
2023-11-30T04:23:01.357Z,0.00
2023-11-30T04:25:28.029Z,0.02
2023-11-30T04:27:54.702Z,0.04
2023-11-30T04:30:21.493Z,0.06
2023-11-30T04:32:48.315Z,0.08
2023-11-30T04:35:15.117Z,0.10
2023-11-30T04:37:41.781Z,0.10
2023-11-30T04:40:09.027Z,0.07
2023-11-30T04:42:36.505Z,0.05
2023-11-30T04:45:04.033Z,0.03
2023-11-30T04:47:30.779Z,0.02
2023-11-30T04:49:57.461Z,0.02
2023-11-30T04:52:24.949Z,0.03
2023-11-30T04:54:52.042Z,0.06
2023-11-30T04:57:18.893Z,0.09
2023-11-30T04:59:46.538Z,0.12
2023-11-30T05:02:13.362Z,0.13
2023-11-30T05:04:40.195Z,0.13
2023-11-30T05:07:06.908Z,0.15
2023-11-30T05:09:33.672Z,0.15
2023-11-30T05:12:00.682Z,0.14
2023-11-30T05:14:27.447Z,0.13
2023-11-30T05:16:58.360Z,0.13
2023-11-30T05:19:25.288Z,0.16
2023-11-30T05:21:52.294Z,0.13
2023-11-30T05:24:19.034Z,0.11
2023-11-30T05:26:45.819Z,0.10
2023-11-30T05:29:12.503Z,0.10
2023-11-30T05:31:39.156Z,0.10
2023-11-30T05:34:05.887Z,0.12
2023-11-30T05:36:32.997Z,0.14
2023-11-30T05:39:00.042Z,0.16
2023-11-30T05:41:26.944Z,0.18
2023-11-30T05:43:54.554Z,0.19
2023-11-30T05:46:21.517Z,0.20
2023-11-30T05:48:48.335Z,0.20
2023-11-30T05:51:15.172Z,0.19
2023-11-30T05:53:42.105Z,0.20
2023-11-30T05:56:09.417Z,0.22
2023-11-30T05:58:37.055Z,0.23
2023-11-30T06:01:03.769Z,0.26
2023-11-30T06:03:30.590Z,0.28
2023-11-30T06:05:57.480Z,0.31
2023-11-30T06:08:28.198Z,0.32
2023-11-30T06:10:54.982Z,0.35
2023-11-30T06:13:25.943Z,0.35
2023-11-30T06:15:54.032Z,0.33
2023-11-30T06:18:21.040Z,0.37
2023-11-30T06:20:48.109Z,0.38
2023-11-30T06:23:14.821Z,0.41
2023-11-30T06:25:41.507Z,0.43
2023-11-30T06:28:08.180Z,0.43
2023-11-30T06:30:35.529Z,0.43
2023-11-30T06:33:02.306Z,0.42
2023-11-30T06:35:29.008Z,0.45
2023-11-30T06:37:55.682Z,0.46
2023-11-30T06:40:22.362Z,0.48
2023-11-30T06:42:50.000Z,0.49
2023-11-30T06:45:17.152Z,0.51
2023-11-30T06:47:43.898Z,0.53
2023-11-30T06:50:10.750Z,0.54
2023-11-30T06:52:37.452Z,0.55
2023-11-30T06:55:04.941Z,0.57
2023-11-30T06:57:31.807Z,0.58
2023-11-30T06:59:58.715Z,0.59
2023-11-30T07:02:25.541Z,0.61
2023-11-30T07:04:52.429Z,0.63
2023-11-30T07:07:28.054Z,0.63
2023-11-30T07:10:00.902Z,0.61
2023-11-30T07:12:28.123Z,0.63
2023-11-30T07:14:55.230Z,0.60
2023-11-30T07:17:25.047Z,0.61
2023-11-30T07:19:53.561Z,0.63
2023-11-30T07:22:21.839Z,0.63
2023-11-30T07:24:49.196Z,0.62
2023-11-30T07:27:22.351Z,0.65
2023-11-30T07:29:49.059Z,0.66
2023-11-30T07:32:19.133Z,0.66
2023-11-30T07:34:46.149Z,0.67
2023-11-30T07:37:16.255Z,0.68
2023-11-30T07:39:42.976Z,0.71
2023-11-30T07:42:09.780Z,0.74
2023-11-30T07:44:36.747Z,0.75
2023-11-30T07:47:03.620Z,0.77
2023-11-30T07:49:30.458Z,0.75
2023-11-30T07:51:57.300Z,0.78
2023-11-30T07:54:24.007Z,0.79
2023-11-30T07:56:50.802Z,0.80
2023-11-30T07:59:17.443Z,0.81
2023-11-30T08:01:44.174Z,0.83
2023-11-30T08:04:11.176Z,0.82
2023-11-30T08:06:38.262Z,0.83
2023-11-30T08:09:05.112Z,0.83
2023-11-30T08:11:32.063Z,0.83
2023-11-30T08:13:58.813Z,0.85
2023-11-30T08:16:26.152Z,0.87
2023-11-30T08:18:53.124Z,0.88
2023-11-30T08:21:21.774Z,0.90
2023-11-30T08:23:49.055Z,0.90
2023-11-30T08:26:16.660Z,0.89
2023-11-30T08:28:46.272Z,0.88
2023-11-30T08:31:13.719Z,0.89
2023-11-30T08:33:40.565Z,0.89
2023-11-30T08:36:07.920Z,0.88
2023-11-30T08:38:38.705Z,0.85
2023-11-30T08:41:05.591Z,0.84
2023-11-30T08:43:32.294Z,0.86
2023-11-30T08:45:59.887Z,0.85
2023-11-30T08:48:27.444Z,0.84
2023-11-30T08:50:54.788Z,0.84
2023-11-30T08:53:22.289Z,0.84
2023-11-30T08:55:49.209Z,0.85
2023-11-30T08:58:16.010Z,0.88
2023-11-30T09:00:43.641Z,0.88
2023-11-30T09:03:10.874Z,0.88
2023-11-30T09:05:37.722Z,0.89
2023-11-30T09:08:04.858Z,0.87
2023-11-30T09:10:31.587Z,0.88
2023-11-30T09:12:58.355Z,0.90
2023-11-30T09:15:25.752Z,0.92
2023-11-30T09:17:52.670Z,0.90
2023-11-30T09:20:32.641Z,0.92
2023-11-30T09:23:36.788Z,0.94
2023-11-30T09:26:21.937Z,0.98
2023-11-30T09:28:49.137Z,1.02
2023-11-30T09:31:16.412Z,1.03
2023-11-30T09:33:43.559Z,1.05
2023-11-30T09:36:10.951Z,1.05
2023-11-30T09:38:37.694Z,1.07
2023-11-30T09:41:06.929Z,1.12
2023-11-30T09:43:34.362Z,1.19
2023-11-30T09:46:01.609Z,1.22
2023-11-30T09:48:31.194Z,1.24
2023-11-30T09:50:58.358Z,1.30
2023-11-30T09:53:25.095Z,1.33
2023-11-30T09:55:51.922Z,1.37
2023-11-30T09:58:18.598Z,1.42
2023-11-30T10:00:45.331Z,1.43
2023-11-30T10:03:12.156Z,1.41
2023-11-30T10:05:38.914Z,1.39
2023-11-30T10:08:06.248Z,1.42
2023-11-30T10:10:33.122Z,1.42
2023-11-30T10:12:59.904Z,1.45
2023-11-30T10:15:29.619Z,1.48
2023-11-30T10:17:58.579Z,1.49
2023-11-30T10:23:34.402Z,1.53
2023-11-30T10:26:03.595Z,1.54
2023-11-30T10:28:31.120Z,1.55
2023-11-30T10:31:02.859Z,1.58
2023-11-30T10:33:34.535Z,1.61
2023-11-30T10:36:05.253Z,1.63
2023-11-30T10:38:36.243Z,1.66
2023-11-30T10:41:08.455Z,1.66
2023-11-30T10:43:38.752Z,1.67
2023-11-30T10:46:08.774Z,1.69
2023-11-30T10:48:38.520Z,1.73
2023-11-30T10:51:06.868Z,1.78
2023-11-30T10:53:45.644Z,1.81
2023-11-30T10:56:14.944Z,1.84
2023-11-30T10:58:44.035Z,1.87
2023-11-30T11:01:12.728Z,1.88
2023-11-30T11:03:49.050Z,1.90
2023-11-30T11:06:19.224Z,1.94
2023-11-30T11:09:09.611Z,1.95
2023-11-30T11:11:44.603Z,1.97
2023-11-30T11:14:39.709Z,2.02
2023-11-30T11:18:00.764Z,2.07
2023-11-30T11:25:26.396Z,2.18
2023-11-30T11:27:53.148Z,2.21
2023-11-30T11:30:22.063Z,2.24
2023-11-30T11:32:49.913Z,2.28
2023-11-30T11:35:16.703Z,2.34
2023-11-30T11:37:43.468Z,2.36
2023-11-30T11:40:10.557Z,2.36
2023-11-30T11:42:37.426Z,2.37
2023-11-30T11:45:05.603Z,2.38
2023-11-30T11:47:32.670Z,2.42
2023-11-30T11:50:02.201Z,2.42
2023-11-30T11:52:31.661Z,2.42
2023-11-30T11:55:09.498Z,2.43
2023-11-30T11:58:01.358Z,2.45
2023-11-30T12:00:28.314Z,2.49
2023-11-30T12:03:09.176Z,2.52
2023-11-30T12:05:46.791Z,2.52
2023-11-30T12:08:13.518Z,2.54
2023-11-30T12:10:42.297Z,2.57
2023-11-30T12:13:12.240Z,2.62
2023-11-30T12:15:39.542Z,2.64
2023-11-30T12:18:08.221Z,2.65
2023-11-30T12:20:35.376Z,2.66
2023-11-30T12:23:03.315Z,2.68
2023-11-30T12:25:30.431Z,2.67
2023-11-30T12:27:57.459Z,2.68
2023-11-30T12:30:27.195Z,2.68
2023-11-30T12:32:54.127Z,2.70
2023-11-30T12:35:21.166Z,2.72
2023-11-30T12:37:50.061Z,2.73
2023-11-30T12:40:17.209Z,2.74
2023-11-30T12:42:44.762Z,2.76
2023-11-30T12:45:12.447Z,2.78
2023-11-30T12:47:42.694Z,2.82
2023-11-30T12:50:21.789Z,2.84
2023-11-30T12:52:49.002Z,2.85
2023-11-30T12:55:17.704Z,2.86
2023-11-30T12:57:46.242Z,2.90
2023-11-30T13:00:16.154Z,2.92
2023-11-30T13:02:46.680Z,2.96
2023-11-30T13:05:15.133Z,2.98
2023-11-30T13:07:42.074Z,3.00
2023-11-30T13:10:11.797Z,2.99
2023-11-30T13:12:40.235Z,2.99
2023-11-30T13:15:11.529Z,2.96
2023-11-30T13:17:39.744Z,2.96
2023-11-30T13:20:11.072Z,2.96
2023-11-30T13:22:37.886Z,2.99
2023-11-30T13:25:05.198Z,3.01
2023-11-30T13:27:33.615Z,3.03
2023-11-30T13:30:01.078Z,3.10
2023-11-30T13:32:31.914Z,3.13
2023-11-30T13:34:59.149Z,3.14
2023-11-30T13:37:26.326Z,3.12
2023-11-30T13:39:53.118Z,3.12
2023-11-30T13:42:19.830Z,3.11
2023-11-30T13:44:47.077Z,3.12
2023-11-30T13:47:14.226Z,3.12
2023-11-30T13:49:43.633Z,3.11
2023-11-30T13:56:24.402Z,3.10
2023-11-30T13:58:51.091Z,3.11
2023-11-30T14:01:18.122Z,3.14
2023-11-30T14:03:45.337Z,3.15
2023-11-30T14:06:13.273Z,3.16
2023-11-30T14:08:41.361Z,3.18
2023-11-30T14:11:13.194Z,3.18
2023-11-30T14:13:40.171Z,3.20
2023-11-30T14:16:07.837Z,3.22
2023-11-30T14:18:34.804Z,3.22
2023-11-30T14:21:01.948Z,3.23
2023-11-30T14:23:28.724Z,3.26
2023-11-30T14:25:57.518Z,3.27
2023-11-30T14:28:26.193Z,3.29
2023-11-30T14:30:53.372Z,3.27
2023-11-30T14:33:20.423Z,3.27
2023-11-30T14:35:47.300Z,3.25
2023-11-30T14:38:14.618Z,3.24
2023-11-30T14:40:41.471Z,3.22
2023-11-30T14:43:08.293Z,3.17
2023-11-30T14:45:35.162Z,3.15
2023-11-30T14:48:01.950Z,3.14
2023-11-30T14:50:28.770Z,3.11
2023-11-30T14:52:55.504Z,3.09
2023-11-30T14:55:22.719Z,3.09
2023-11-30T14:57:49.720Z,3.05
2023-11-30T15:00:21.898Z,3.06
2023-11-30T15:02:50.082Z,3.04
2023-11-30T15:05:17.032Z,3.01
2023-11-30T15:07:44.079Z,2.99
2023-11-30T15:10:12.654Z,2.98
2023-11-30T15:12:40.077Z,2.95
2023-11-30T15:15:14.634Z,2.92
2023-11-30T15:17:44.413Z,2.90
2023-11-30T15:20:42.755Z,2.89
2023-11-30T15:26:23.078Z,2.82
2023-11-30T15:28:49.951Z,2.80
2023-11-30T15:31:22.376Z,2.78
2023-11-30T15:33:49.205Z,2.77
2023-11-30T15:36:16.273Z,2.75
2023-11-30T15:38:43.135Z,2.74
2023-11-30T15:41:10.329Z,2.71
2023-11-30T15:43:37.581Z,2.69
2023-11-30T15:46:17.145Z,2.66
2023-11-30T15:48:44.064Z,2.65
2023-11-30T15:51:12.602Z,2.62
2023-11-30T15:53:40.727Z,2.57
2023-11-30T15:56:09.030Z,2.55
2023-11-30T15:58:37.998Z,2.51
2023-11-30T16:01:04.802Z,2.48
2023-11-30T16:03:31.644Z,2.44
2023-11-30T16:05:58.520Z,2.42
2023-11-30T16:08:25.208Z,2.39
2023-11-30T16:10:51.881Z,2.34
2023-11-30T16:13:20.680Z,2.30
2023-11-30T16:15:47.492Z,2.26
2023-11-30T16:18:14.250Z,2.20
2023-11-30T16:20:40.947Z,2.18
2023-11-30T16:23:07.778Z,2.15
2023-11-30T16:25:34.567Z,2.11
2023-11-30T16:28:01.370Z,2.08
2023-11-30T16:30:28.204Z,2.06
2023-11-30T16:32:54.952Z,2.02
2023-11-30T16:35:21.650Z,2.01
2023-11-30T16:37:48.945Z,1.99
2023-11-30T16:40:15.719Z,1.97
2023-11-30T16:43:15.850Z,1.95
2023-11-30T16:45:43.089Z,1.89
2023-11-30T16:48:09.970Z,1.86
2023-11-30T16:50:36.660Z,1.85
2023-11-30T16:53:04.900Z,1.82
2023-11-30T16:55:31.728Z,1.79
2023-11-30T16:57:59.720Z,1.75
2023-11-30T17:00:26.837Z,1.74
2023-11-30T17:02:55.438Z,1.71
2023-11-30T17:05:22.502Z,1.69
2023-11-30T17:07:49.365Z,1.66
2023-11-30T17:10:16.168Z,1.63
2023-11-30T17:12:42.929Z,1.62
2023-11-30T17:15:11.586Z,1.59
2023-11-30T17:17:38.536Z,1.57
2023-11-30T17:20:07.292Z,1.53
2023-11-30T17:22:35.243Z,1.53
2023-11-30T17:25:02.131Z,1.51
2023-11-30T17:27:28.897Z,1.50
2023-11-30T17:29:55.640Z,1.49
2023-11-30T17:32:22.398Z,1.49
2023-11-30T17:34:49.492Z,1.48
2023-11-30T17:37:16.431Z,1.47
2023-11-30T17:39:43.259Z,1.48
2023-11-30T17:42:10.203Z,1.47
2023-11-30T17:44:37.235Z,1.48
2023-11-30T17:47:04.625Z,1.46
2023-11-30T17:49:31.464Z,1.46
2023-11-30T17:51:58.189Z,1.45
2023-11-30T17:54:24.956Z,1.43
2023-11-30T17:56:51.690Z,1.41
2023-11-30T17:59:18.462Z,1.40
2023-11-30T18:01:45.199Z,1.40
2023-11-30T18:04:11.959Z,1.41
2023-11-30T18:06:39.087Z,1.43
2023-11-30T18:09:05.967Z,1.46
2023-11-30T18:11:32.684Z,1.49
2023-11-30T18:13:59.455Z,1.52
2023-11-30T18:16:27.091Z,1.54
2023-11-30T18:18:54.196Z,1.57
2023-11-30T18:21:21.135Z,1.61
2023-11-30T18:23:48.275Z,1.63
2023-11-30T18:26:15.068Z,1.64
2023-11-30T18:28:41.814Z,1.65
2023-11-30T18:31:16.636Z,1.67
2023-11-30T18:33:49.575Z,1.69
2023-11-30T18:36:16.443Z,1.70
2023-11-30T18:38:50.185Z,1.72
2023-11-30T18:41:20.186Z,1.72
2023-11-30T18:43:47.975Z,1.73
2023-11-30T18:46:15.592Z,1.75
2023-11-30T18:48:42.813Z,1.74
2023-11-30T18:51:14.443Z,1.74
2023-11-30T18:53:42.232Z,1.71
2023-11-30T18:56:09.404Z,1.68
2023-11-30T18:58:36.845Z,1.65
2023-11-30T19:01:03.767Z,1.64
2023-11-30T19:03:30.612Z,1.63
2023-11-30T19:05:57.927Z,1.62
2023-11-30T19:08:24.851Z,1.58
2023-11-30T19:10:52.854Z,1.56
2023-11-30T19:13:23.101Z,1.55
2023-11-30T19:15:53.017Z,1.55
2023-11-30T19:22:18.611Z,1.54
2023-11-30T19:24:46.574Z,1.53
2023-11-30T19:27:13.465Z,1.49
2023-11-30T19:29:40.863Z,1.44
2023-11-30T19:32:08.181Z,1.40
2023-11-30T19:34:35.116Z,1.34
2023-11-30T19:37:01.976Z,1.31
2023-11-30T19:39:28.931Z,1.26
2023-11-30T19:41:55.895Z,1.25
2023-11-30T19:44:22.995Z,1.23
2023-11-30T19:46:50.051Z,1.22
2023-11-30T19:49:17.201Z,1.21
2023-11-30T19:51:44.483Z,1.19
2023-11-30T19:54:17.916Z,1.19
2023-11-30T19:56:44.862Z,1.17
2023-11-30T19:59:11.943Z,1.13
2023-11-30T20:01:38.948Z,1.10
2023-11-30T20:04:06.019Z,1.09
2023-11-30T20:06:32.943Z,1.08
2023-11-30T20:08:59.736Z,1.03
2023-11-30T20:11:26.637Z,1.01
2023-11-30T20:13:53.334Z,0.97
2023-11-30T20:16:20.822Z,0.92
2023-11-30T20:18:47.650Z,0.89
2023-11-30T20:21:22.686Z,0.86
2023-11-30T20:27:34.455Z,0.84
2023-11-30T20:30:02.668Z,0.79
2023-11-30T20:32:29.666Z,0.78
2023-11-30T20:34:56.748Z,0.79
2023-11-30T20:37:26.200Z,0.77
2023-11-30T20:40:25.606Z,0.77
2023-11-30T20:42:53.212Z,0.78
2023-11-30T20:45:20.679Z,0.77
2023-11-30T20:47:47.609Z,0.72
2023-11-30T20:50:23.734Z,0.68
2023-11-30T20:53:01.443Z,0.67
2023-11-30T20:55:48.555Z,0.63
2023-11-30T20:58:16.099Z,0.58
2023-11-30T21:00:42.939Z,0.56
2023-11-30T21:03:09.939Z,0.54
2023-11-30T21:05:37.553Z,0.54
2023-11-30T21:08:05.854Z,0.53
2023-11-30T21:10:33.730Z,0.51
2023-11-30T21:13:01.215Z,0.49
2023-11-30T21:15:29.731Z,0.47
2023-11-30T21:17:56.635Z,0.43
2023-11-30T21:20:23.758Z,0.42
2023-11-30T21:22:50.716Z,0.40
2023-11-30T21:25:17.617Z,0.39
2023-11-30T21:27:44.436Z,0.36
2023-11-30T21:30:11.561Z,0.31
2023-11-30T21:32:38.364Z,0.29
2023-11-30T21:35:05.646Z,0.28
2023-11-30T21:37:33.297Z,0.28
2023-11-30T21:40:00.331Z,0.28
2023-11-30T21:42:27.438Z,0.27
2023-11-30T21:44:54.352Z,0.28
2023-11-30T21:47:21.561Z,0.26
2023-11-30T21:50:17.918Z,0.22
2023-11-30T21:52:49.119Z,0.20
2023-11-30T21:55:16.932Z,0.19
2023-11-30T21:57:44.332Z,0.19
2023-11-30T22:00:15.192Z,0.17
2023-11-30T22:02:46.281Z,0.15
2023-11-30T22:05:24.168Z,0.13
2023-11-30T22:07:57.518Z,0.11
2023-11-30T22:10:24.506Z,0.09
2023-11-30T22:12:51.618Z,0.06
2023-11-30T22:15:19.969Z,0.04
2023-11-30T22:17:47.543Z,0.03
2023-11-30T22:20:14.748Z,0.01
2023-11-30T22:22:41.649Z,0.01
2023-11-30T22:25:09.201Z,-0.01
2023-11-30T22:27:35.991Z,-0.02
2023-11-30T22:30:02.771Z,-0.06
2023-11-30T22:32:29.829Z,-0.07
2023-11-30T22:34:56.597Z,-0.05
2023-11-30T22:37:23.414Z,-0.05
2023-11-30T22:39:50.267Z,-0.05
2023-11-30T22:42:17.233Z,-0.06
2023-11-30T22:44:44.458Z,-0.08
2023-11-30T22:47:13.863Z,-0.13
2023-11-30T22:49:40.778Z,-0.17
2023-11-30T22:52:07.731Z,-0.19
2023-11-30T22:54:34.648Z,-0.20
2023-11-30T22:57:01.711Z,-0.19
2023-11-30T22:59:29.029Z,-0.19
2023-11-30T23:01:56.258Z,-0.20
2023-11-30T23:04:23.678Z,-0.21
2023-11-30T23:06:51.200Z,-0.23
2023-11-30T23:09:18.367Z,-0.26
2023-11-30T23:11:45.288Z,-0.29
2023-11-30T23:14:12.193Z,-0.27
2023-11-30T23:17:02.299Z,-0.29
2023-11-30T23:19:32.672Z,-0.32
2023-11-30T23:22:00.763Z,-0.35
2023-11-30T23:24:31.814Z,-0.40
2023-11-30T23:26:59.165Z,-0.44
2023-11-30T23:29:26.137Z,-0.41
2023-11-30T23:31:52.920Z,-0.42
2023-11-30T23:34:19.749Z,-0.42
2023-11-30T23:36:46.600Z,-0.40
2023-11-30T23:39:13.319Z,-0.36
2023-11-30T23:41:40.092Z,-0.37
2023-11-30T23:44:06.865Z,-0.38
2023-11-30T23:46:34.086Z,-0.38
2023-11-30T23:49:00.966Z,-0.38
2023-11-30T23:54:33.997Z,-0.39
2023-11-30T23:57:00.901Z,-0.40
2023-11-30T23:59:27.697Z,-0.37
